KBML/BML METAR and TAF weather

Enter ICAO airport designator
Station Type Date Time Source
KBML METAR 2019/02/23 16:52 UTC NOAA

KBML 231652Z AUTO VRB04KT 10SM CLR M01/M09 A3037 RMK AO2 SLP306 T10061094


Station Type Date Time Source
KBML Decoded METAR 2019/02/23 16:52 UTC NOAA

BERLIN MUNICIPAL AIRPORT, NH, United States (KBML) 44-35N 71-11W 345M
Feb 23, 2019 - 11:52 AM EST / 2019.02.23 1652 UTC
Wind: Variable at 5 MPH (4 KT):0
Visibility: 10 mile(s):0
Sky conditions: clear
Temperature: 30.9 F (-0.6 C)
Windchill: 26 F (-3 C):1
Dew Point: 15.1 F (-9.4 C)
Relative Humidity: 51%
Pressure (altimeter): 30.37 in. Hg (1028 hPa)
ob: KBML 231652Z AUTO VRB04KT 10SM CLR M01/M09 A3037 RMK AO2 SLP306 T10061094
cycle: 17

Station Type Date Time Source
KBML TAF UTC NOAA

Error!


Example: see airport list